Time;durP1;ratioP1;P1;durP2;ratioP2;P2;SDS_P1;SDS_P2;PMS_P1;PMS_P2;Temp;Humidity;BMP_temperature;BMP_pressure;BME280_temperature;BME280_humidity;BME280_pressure;Samples;Min_cycle;Max_cycle;Signal;HPM_P1;HPM_P2
2022/07/28 00:07:40;;;;;;;;;;;;;;;26.63;36.00;100179.53;20865790;28;97502;-77
2022/07/28 00:17:41;;;;;;;;;;;;;;;26.59;36.02;100179.00;20885585;28;96233;-79
2022/07/28 00:27:41;;;;;;;;;;;;;;;26.57;36.11;100183.63;21037630;28;38451;-76
2022/07/28 00:37:41;;;;;;;;;;;;;;;26.48;35.76;100176.66;21004144;28;40675;-76
2022/07/28 00:47:42;;;;;;;;;;;;;;;26.47;36.52;100165.19;21026136;28;40657;-76
2022/07/28 00:57:42;;;;;;;;;;;;;;;26.42;36.52;100159.53;21006506;28;44753;-78
2022/07/28 01:07:48;;;;;;;;;;;;;;;26.50;37.00;100156.91;20997660;28;63145;-77
2022/07/28 01:17:55;;;;;;;;;;;;;;;26.43;36.91;100158.53;20956018;28;55866;-77
2022/07/28 01:28:04;;;;;;;;;;;;;;;26.34;37.29;100154.16;21005212;27;82730;-76
2022/07/28 01:38:07;;;;;;;;;;;;;;;26.19;37.93;100154.75;21046031;28;28440;-75
2022/07/28 01:48:09;;;;;;;;;;;;;;;26.07;38.05;100158.66;21023650;28;58520;-76
2022/07/28 01:58:11;;;;;;;;;;;;;;;25.97;38.29;100152.63;21049620;28;56992;-77
2022/07/28 02:08:14;;;;;;;;;;;;;;;25.78;38.89;100143.03;21005070;28;48787;-77
2022/07/28 02:18:15;;;;;;;;;;;;;;;25.72;39.22;100141.84;21041735;28;36465;-76
2022/07/28 02:28:19;;;;;;;;;;;;;;;25.59;39.82;100142.25;21003435;28;96287;-77
2022/07/28 02:38:29;;;;;;;;;;;;;;;25.52;39.86;100157.94;20948725;28;96314;-77
2022/07/28 02:48:32;;;;;;;;;;;;;;;25.41;40.20;100163.47;20962400;28;95752;-77
2022/07/28 02:58:32;;;;;;;;;;;;;;;25.43;40.37;100169.47;20920314;28;96384;-79
2022/07/28 03:08:34;;;;;;;;;;;;;;;25.42;40.72;100181.88;20873592;28;98242;-78
2022/07/28 03:18:34;;;;;;;;;;;;;;;25.40;40.90;100178.56;20952187;28;94850;-78
2022/07/28 03:28:35;;;;;;;;;;;;;;;25.39;40.92;100186.66;20968233;28;94125;-77
2022/07/28 03:38:37;;;;;;;;;;;;;;;25.38;41.20;100196.41;20888108;28;97021;-77
2022/07/28 03:48:38;;;;;;;;;;;;;;;25.39;41.21;100203.38;20936354;28;96478;-79
2022/07/28 03:58:39;;;;;;;;;;;;;;;25.34;41.36;100213.59;20931722;28;96288;-79
2022/07/28 04:08:40;;;;;;;;;;;;;;;25.33;41.58;100221.66;20983790;28;46066;-77
2022/07/28 04:18:41;;;;;;;;;;;;;;;25.35;41.96;100235.59;21019067;28;69490;-77
2022/07/28 04:28:41;;;;;;;;;;;;;;;25.41;41.85;100229.72;20971099;28;56311;-76
2022/07/28 04:38:41;;;;;;;;;;;;;;;25.49;42.15;100221.88;21033807;28;21077;-80
2022/07/28 04:48:44;;;;;;;;;;;;;;;25.52;42.57;100231.31;20988928;28;64073;-80
2022/07/28 04:58:44;;;;;;;;;;;;;;;25.51;42.44;100227.00;20994639;28;72860;-85
2022/07/28 05:08:44;;;;;;;;;;;;;;;25.45;43.20;100239.06;20943961;28;95319;-86
2022/07/28 05:18:45;;;;;;;;;;;;;;;25.41;43.49;100258.88;20961816;28;93186;-81
2022/07/28 05:28:45;;;;;;;;;;;;;;;25.48;43.36;100265.25;20861492;28;97145;-81
2022/07/28 05:38:45;;;;;;;;;;;;;;;25.51;43.31;100267.63;20799733;28;97758;-80
2022/07/28 05:48:46;;;;;;;;;;;;;;;25.54;42.90;100275.25;20933781;28;96283;-83
2022/07/28 05:58:46;;;;;;;;;;;;;;;25.56;42.77;100280.41;20961667;28;96464;-84
2022/07/28 06:08:47;;;;;;;;;;;;;;;25.67;42.48;100288.16;20946077;28;95161;-81
2022/07/28 06:18:48;;;;;;;;;;;;;;;25.78;42.66;100302.16;20952026;28;96271;-81
2022/07/28 06:28:49;;;;;;;;;;;;;;;25.83;42.21;100306.03;20943543;28;95769;-80
2022/07/28 06:38:49;;;;;;;;;;;;;;;25.94;42.70;100307.63;20970650;28;70676;-80
2022/07/28 06:48:50;;;;;;;;;;;;;;;26.02;41.54;100317.47;20986090;28;56185;-80
2022/07/28 06:58:50;;;;;;;;;;;;;;;26.05;39.99;100315.34;21013911;28;22159;-80
2022/07/28 07:08:50;;;;;;;;;;;;;;;26.10;39.78;100320.25;20986899;28;70997;-82
2022/07/28 07:18:51;;;;;;;;;;;;;;;26.17;39.31;100323.94;20940011;28;94790;-83
2022/07/28 07:28:52;;;;;;;;;;;;;;;26.21;39.39;100325.28;20931123;28;95609;-76
2022/07/28 07:38:52;;;;;;;;;;;;;;;26.22;38.88;100318.19;20941065;28;93412;-74
2022/07/28 07:48:54;;;;;;;;;;;;;;;26.25;39.11;100320.50;20999481;28;21222;-74
2022/07/28 07:58:55;;;;;;;;;;;;;;;26.36;39.58;100322.09;20966271;28;39305;-78
2022/07/28 08:08:55;;;;;;;;;;;;;;;26.43;38.35;100315.19;20935464;28;95989;-77
2022/07/28 08:18:57;;;;;;;;;;;;;;;26.46;38.54;100322.81;20850320;28;98300;-76
2022/07/28 08:28:58;;;;;;;;;;;;;;;26.56;37.98;100319.22;20870435;28;96327;-77
2022/07/28 08:38:58;;;;;;;;;;;;;;;26.60;37.61;100317.91;20938075;28;91110;-77
2022/07/28 08:48:59;;;;;;;;;;;;;;;26.65;37.92;100313.00;20928385;28;94537;-77
2022/07/28 08:59:01;;;;;;;;;;;;;;;26.73;38.02;100314.84;20970005;28;82908;-77
2022/07/28 09:09:01;;;;;;;;;;;;;;;26.79;37.13;100312.44;20972612;28;91838;-75
2022/07/28 09:19:02;;;;;;;;;;;;;;;26.82;36.53;100304.16;20983241;28;95526;-78
2022/07/28 09:29:03;;;;;;;;;;;;;;;26.92;36.10;100298.72;20992934;28;30773;-78
2022/07/28 09:39:03;;;;;;;;;;;;;;;26.96;36.40;100283.28;21027597;28;26562;-78
2022/07/28 09:49:03;;;;;;;;;;;;;;;27.06;37.13;100278.69;20956798;28;94259;-78
2022/07/28 09:59:04;;;;;;;;;;;;;;;27.13;37.06;100274.38;20962038;28;96341;-80
2022/07/28 10:09:06;;;;;;;;;;;;;;;27.20;37.66;100265.78;21024818;28;26160;-79
2022/07/28 10:19:07;;;;;;;;;;;;;;;27.25;37.73;100261.63;20966614;28;57663;-78
2022/07/28 10:29:11;;;;;;;;;;;;;;;27.30;37.99;100251.31;20997791;28;27892;-76
2022/07/28 10:39:12;;;;;;;;;;;;;;;27.42;36.09;100235.13;20963124;28;77501;-78
2022/07/28 10:49:13;;;;;;;;;;;;;;;27.54;35.61;100235.59;20891474;28;96292;-79
2022/07/28 10:59:32;;;;;;;;;;;;;;;27.89;33.94;100236.28;20734225;28;98775;-77
2022/07/28 11:09:32;;;;;;;;;;;;;;;27.92;33.42;100218.16;20703533;28;98562;-79
2022/07/28 11:19:42;;;;;;;;;;;;;;;27.92;33.80;100212.84;20753726;28;98403;-80
2022/07/28 11:29:46;;;;;;;;;;;;;;;27.99;34.21;100207.69;20710030;28;97821;-79
2022/07/28 11:39:46;;;;;;;;;;;;;;;28.08;34.54;100200.53;20720128;28;100459;-77
2022/07/28 11:50:05;;;;;;;;;;;;;;;28.17;35.40;100199.50;20725957;28;96985;-78
2022/07/28 12:00:06;;;;;;;;;;;;;;;28.41;32.98;100185.28;20777694;28;97350;-78
2022/07/28 12:10:26;;;;;;;;;;;;;;;28.65;33.53;100170.22;20832452;28;97255;-77
2022/07/28 12:20:33;;;;;;;;;;;;;;;28.56;33.77;100173.94;20770425;28;96869;-79
2022/07/28 12:30:33;;;;;;;;;;;;;;;28.51;32.94;100176.28;20860864;28;97896;-78
2022/07/28 12:40:33;;;;;;;;;;;;;;;28.48;33.96;100171.28;20830286;28;99274;-78
2022/07/28 12:50:37;;;;;;;;;;;;;;;28.44;34.04;100162.81;20838703;28;98787;-79
2022/07/28 13:00:47;;;;;;;;;;;;;;;28.49;34.16;100159.63;20872401;28;97172;-78
2022/07/28 13:10:51;;;;;;;;;;;;;;;28.52;34.21;100154.81;20858839;28;96458;-78
2022/07/28 13:20:52;;;;;;;;;;;;;;;28.60;33.76;100143.28;20938521;28;96292;-78
2022/07/28 13:30:53;;;;;;;;;;;;;;;28.67;33.95;100140.75;20948448;28;96211;-78
2022/07/28 13:40:54;;;;;;;;;;;;;;;28.71;34.02;100126.94;20871976;28;97013;-77
2022/07/28 13:50:54;;;;;;;;;;;;;;;28.78;33.73;100123.56;20822536;28;96745;-77
2022/07/28 14:00:55;;;;;;;;;;;;;;;28.81;33.76;100110.72;20938763;28;96296;-78
2022/07/28 14:10:57;;;;;;;;;;;;;;;28.82;33.61;100114.22;20675864;28;98587;-76
2022/07/28 14:20:59;;;;;;;;;;;;;;;28.83;33.79;100106.06;20660168;28;97713;-81
2022/07/28 14:31:00;;;;;;;;;;;;;;;28.86;34.28;100107.53;20729727;28;98540;-82
2022/07/28 14:41:01;;;;;;;;;;;;;;;28.84;33.70;100101.53;20737291;28;98455;-82
2022/07/28 14:51:01;;;;;;;;;;;;;;;28.82;33.73;100099.06;20720669;28;97075;-83
2022/07/28 15:01:01;;;;;;;;;;;;;;;28.80;33.62;100098.41;20729013;28;98691;-81
2022/07/28 15:11:02;;;;;;;;;;;;;;;28.83;36.10;100090.06;20688298;28;98407;-80
2022/07/28 15:21:05;;;;;;;;;;;;;;;28.88;35.41;100090.38;20774729;28;97907;-82
2022/07/28 15:31:05;;;;;;;;;;;;;;;28.96;34.61;100076.13;20775939;28;96952;-80
2022/07/28 15:41:06;;;;;;;;;;;;;;;29.06;34.06;100082.06;20795608;28;96793;-81
2022/07/28 15:51:07;;;;;;;;;;;;;;;29.16;33.82;100078.31;20711191;28;97825;-82
2022/07/28 16:01:08;;;;;;;;;;;;;;;29.15;33.61;100076.66;20851026;28;97248;-84
2022/07/28 16:11:09;;;;;;;;;;;;;;;29.09;34.41;100075.56;20833532;28;97222;-82
2022/07/28 16:21:11;;;;;;;;;;;;;;;29.04;34.65;100073.41;20834737;28;96351;-84
2022/07/28 16:31:11;;;;;;;;;;;;;;;29.04;35.59;100075.22;20831630;28;96454;-77
2022/07/28 16:41:11;;;;;;;;;;;;;;;29.02;35.15;100083.41;20808099;28;96360;-76
2022/07/28 16:51:11;;;;;;;;;;;;;;;29.03;35.85;100084.25;20779342;28;98045;-75
2022/07/28 17:01:14;;;;;;;;;;;;;;;29.07;36.28;100091.69;20835497;28;96476;-77
2022/07/28 17:11:14;;;;;;;;;;;;;;;29.08;36.54;100095.22;20751187;28;97096;-77
2022/07/28 17:21:15;;;;;;;;;;;;;;;29.05;36.50;100093.75;20771838;28;98745;-78
2022/07/28 17:31:16;;;;;;;;;;;;;;;29.04;37.43;100088.56;20749446;28;97871;-80
2022/07/28 17:41:16;;;;;;;;;;;;;;;29.03;37.99;100089.59;20755048;28;97128;-78
2022/07/28 17:51:18;;;;;;;;;;;;;;;29.00;37.48;100088.13;20829334;28;97431;-79
2022/07/28 18:01:18;;;;;;;;;;;;;;;29.00;37.74;100097.94;20797390;28;97056;-80
2022/07/28 18:11:18;;;;;;;;;;;;;;;28.97;36.58;100093.78;20786817;28;97490;-78
2022/07/28 18:21:19;;;;;;;;;;;;;;;28.96;37.71;100107.31;20768316;28;96430;-76
2022/07/28 18:31:20;;;;;;;;;;;;;;;28.92;37.60;100110.31;20720605;28;97764;-77
2022/07/28 18:41:20;;;;;;;;;;;;;;;28.87;35.67;100119.88;20693785;28;101466;-75
2022/07/28 18:51:22;;;;;;;;;;;;;;;28.78;34.95;100132.38;20686187;28;98443;-76
2022/07/28 19:01:22;;;;;;;;;;;;;;;28.69;35.12;100150.25;20699330;28;101558;-74
2022/07/28 19:11:22;;;;;;;;;;;;;;;28.59;34.68;100161.09;20709998;28;98880;-73
2022/07/28 19:21:23;;;;;;;;;;;;;;;28.58;34.84;100169.28;20708237;28;97681;-74
2022/07/28 19:31:23;;;;;;;;;;;;;;;28.53;33.69;100168.97;20721084;28;97846;-72
2022/07/28 19:41:25;;;;;;;;;;;;;;;28.50;35.05;100171.97;20706939;28;100933;-75
2022/07/28 19:51:25;;;;;;;;;;;;;;;28.45;34.90;100177.78;20729772;28;97741;-73
2022/07/28 20:01:26;;;;;;;;;;;;;;;28.34;34.48;100192.31;20727651;28;100789;-74
2022/07/28 20:11:26;;;;;;;;;;;;;;;28.26;34.34;100192.34;20723993;28;97381;-71
2022/07/28 20:21:26;;;;;;;;;;;;;;;28.20;34.81;100206.34;20718856;28;99261;-73
2022/07/28 20:31:27;;;;;;;;;;;;;;;28.13;34.45;100208.03;20749160;28;99936;-73
2022/07/28 20:41:27;;;;;;;;;;;;;;;28.04;34.49;100215.13;20741785;28;98230;-72
2022/07/28 20:51:27;;;;;;;;;;;;;;;28.02;34.38;100219.81;20749478;28;100844;-71
2022/07/28 21:01:28;;;;;;;;;;;;;;;27.86;34.47;100220.66;20754674;28;97626;-72
2022/07/28 21:11:28;;;;;;;;;;;;;;;27.76;34.82;100226.97;20740288;28;97867;-72
2022/07/28 21:21:29;;;;;;;;;;;;;;;27.75;34.91;100224.50;20749555;28;100033;-73
2022/07/28 21:31:29;;;;;;;;;;;;;;;27.66;35.14;100241.44;20731485;28;97241;-73
2022/07/28 21:41:30;;;;;;;;;;;;;;;27.58;35.50;100245.75;20750370;28;97117;-72
2022/07/28 21:51:31;;;;;;;;;;;;;;;27.44;35.96;100255.22;20771430;28;97764;-72
2022/07/28 22:01:31;;;;;;;;;;;;;;;27.57;36.22;100281.31;20794387;28;101025;-73
2022/07/28 22:11:31;;;;;;;;;;;;;;;27.59;36.12;100284.66;20806560;28;100251;-73
2022/07/28 22:21:31;;;;;;;;;;;;;;;27.63;36.10;100279.84;20743805;28;99983;-71
2022/07/28 22:31:32;;;;;;;;;;;;;;;27.55;36.01;100280.69;20743842;28;100674;-74
2022/07/28 22:41:32;;;;;;;;;;;;;;;27.50;35.96;100280.31;20720786;28;97962;-72
2022/07/28 22:51:32;;;;;;;;;;;;;;;27.43;36.30;100284.66;20719325;28;100560;-73
2022/07/28 23:01:33;;;;;;;;;;;;;;;27.39;36.21;100284.09;20732469;28;98269;-73
2022/07/28 23:11:33;;;;;;;;;;;;;;;27.35;36.01;100273.94;20781223;28;97325;-73
2022/07/28 23:21:38;;;;;;;;;;;;;;;27.28;35.72;100271.09;20696729;28;100875;-73
2022/07/28 23:31:38;;;;;;;;;;;;;;;27.28;35.70;100277.25;20700500;28;99423;-74
2022/07/28 23:41:38;;;;;;;;;;;;;;;27.25;35.69;100276.75;20708252;28;98346;-73
2022/07/28 23:51:38;;;;;;;;;;;;;;;27.21;35.75;100288.69;20694437;28;100623;-73
